Time;durP1;ratioP1;P1;durP2;ratioP2;P2;SDS_P1;SDS_P2;PMS_P1;PMS_P2;Temp;Humidity;BMP_temperature;BMP_pressure;BME280_temperature;BME280_humidity;BME280_pressure;Samples;Min_cycle;Max_cycle;Signal;HPM_P1;HPM_P2
2021/07/07 00:01:04;;;;;;;12.55;1.88;;;16.30;80.30;;;;;;5054292;28;20059;-84
2021/07/07 00:03:31;;;;;;;5.22;2.03;;;16.30;80.30;;;;;;5037341;28;20459;-83
2021/07/07 00:05:58;;;;;;;4.93;1.70;;;16.30;80.30;;;;;;5037694;28;20433;-83
2021/07/07 00:08:25;;;;;;;5.85;2.00;;;16.30;80.30;;;;;;5055138;28;20048;-84
2021/07/07 00:10:52;;;;;;;5.65;1.98;;;16.30;80.30;;;;;;5055095;28;20041;-83
2021/07/07 00:13:19;;;;;;;7.78;1.70;;;16.30;80.30;;;;;;5037698;28;20063;-83
2021/07/07 00:15:47;;;;;;;5.30;1.58;;;16.30;80.30;;;;;;5053861;28;20048;-83
2021/07/07 00:18:14;;;;;;;4.32;1.70;;;16.30;80.30;;;;;;5055113;28;20410;-83
2021/07/07 00:20:44;;;;;;;8.38;1.70;;;16.30;80.40;;;;;;5037558;28;20049;-84
2021/07/07 00:23:13;;;;;;;5.15;1.90;;;16.30;80.40;;;;;;5055148;28;20041;-83
2021/07/07 00:25:40;;;;;;;7.20;1.85;;;16.30;80.40;;;;;;5037104;28;20431;-84
2021/07/07 00:28:07;;;;;;;6.65;1.90;;;16.30;80.50;;;;;;5037321;28;20045;-83
2021/07/07 00:30:35;;;;;;;4.88;1.83;;;16.30;80.50;;;;;;5037352;28;20128;-83
2021/07/07 00:33:02;;;;;;;8.75;2.10;;;16.30;80.60;;;;;;5054771;28;20053;-83
2021/07/07 00:35:29;;;;;;;7.38;1.67;;;16.30;80.60;;;;;;5055196;28;20508;-83
2021/07/07 00:37:57;;;;;;;9.80;1.65;;;16.30;80.70;;;;;;5054007;28;20052;-83
2021/07/07 00:40:25;;;;;;;4.97;1.75;;;16.20;80.70;;;;;;5039888;28;20063;-83
2021/07/07 00:42:52;;;;;;;8.90;2.10;;;16.20;80.80;;;;;;5048897;28;20500;-84
2021/07/07 00:45:19;;;;;;;3.80;1.60;;;16.20;80.70;;;;;;5036929;28;20053;-83
2021/07/07 00:47:47;;;;;;;5.00;1.80;;;16.20;80.80;;;;;;5036331;28;20045;-83
2021/07/07 00:50:16;;;;;;;10.68;2.00;;;16.20;80.80;;;;;;5054697;28;20049;-84
2021/07/07 00:52:43;;;;;;;7.20;1.90;;;16.20;80.80;;;;;;5037178;28;20053;-84
2021/07/07 00:55:13;;;;;;;7.22;2.13;;;16.20;80.80;;;;;;5036395;28;20053;-83
2021/07/07 00:57:44;;;;;;;8.43;2.05;;;16.20;80.80;;;;;;5052369;28;20061;-83
2021/07/07 01:00:23;;;;;;;9.73;1.88;;;16.20;80.90;;;;;;5036944;28;20048;-83
2021/07/07 01:02:53;;;;;;;5.82;1.80;;;16.10;80.90;;;;;;5053919;28;20557;-83
2021/07/07 01:05:20;;;;;;;5.20;1.70;;;16.10;80.90;;;;;;5036832;28;20064;-83
2021/07/07 01:07:47;;;;;;;8.40;2.20;;;16.10;80.90;;;;;;5052756;28;20051;-83
2021/07/07 01:10:16;;;;;;;9.18;2.33;;;16.10;80.90;;;;;;5053041;28;20512;-84
2021/07/07 01:12:44;;;;;;;5.90;1.77;;;16.10;81.00;;;;;;5054326;28;20075;-84
2021/07/07 01:15:14;;;;;;;6.53;1.98;;;16.10;81.10;;;;;;5053045;28;20057;-84
2021/07/07 01:17:42;;;;;;;5.47;1.80;;;16.10;81.10;;;;;;5052760;28;20053;-83
2021/07/07 01:20:13;;;;;;;10.00;2.13;;;16.10;81.10;;;;;;5053800;28;20056;-83
2021/07/07 01:22:41;;;;;;;7.53;2.40;;;16.10;81.20;;;;;;5052884;28;20056;-84
2021/07/07 01:25:11;;;;;;;8.60;1.77;;;16.10;81.10;;;;;;5053868;28;20055;-85
2021/07/07 01:27:40;;;;;;;7.32;2.08;;;16.10;81.10;;;;;;5052692;28;20069;-84
2021/07/07 01:30:10;;;;;;;9.07;2.08;;;16.00;81.10;;;;;;5052273;28;20504;-84
2021/07/07 01:32:37;;;;;;;12.13;2.10;;;16.00;81.20;;;;;;5052525;28;20516;-85
2021/07/07 01:35:05;;;;;;;6.07;2.08;;;16.10;81.20;;;;;;5053920;28;20041;-84
2021/07/07 01:37:32;;;;;;;8.15;2.05;;;16.00;81.20;;;;;;5052502;28;20401;-85
2021/07/07 01:39:59;;;;;;;11.55;2.58;;;16.00;81.20;;;;;;5039338;28;20111;-84
2021/07/07 01:42:26;;;;;;;8.43;2.00;;;16.00;81.20;;;;;;5063064;28;20042;-85
2021/07/07 01:44:53;;;;;;;9.07;2.10;;;16.00;81.20;;;;;;5033802;28;20528;-84
2021/07/07 01:47:20;;;;;;;10.50;2.13;;;16.00;81.20;;;;;;5033670;28;20053;-84
2021/07/07 01:49:48;;;;;;;11.43;2.15;;;16.00;81.30;;;;;;5015975;28;20057;-85
2021/07/07 01:52:15;;;;;;;8.35;2.17;;;16.00;81.30;;;;;;5033587;28;20052;-84
2021/07/07 01:54:42;;;;;;;11.35;2.40;;;15.90;81.30;;;;;;5047795;28;20068;-83
2021/07/07 01:57:09;;;;;;;7.00;2.20;;;15.90;81.30;;;;;;5051775;28;20519;-84
2021/07/07 01:59:36;;;;;;;6.50;2.30;;;15.90;81.30;;;;;;5052492;28;20057;-85
2021/07/07 02:02:03;;;;;;;10.27;2.60;;;16.00;81.30;;;;;;5051785;28;20048;-84
2021/07/07 02:04:30;;;;;;;6.32;2.00;;;15.90;81.40;;;;;;5052014;28;20428;-84
2021/07/07 02:06:58;;;;;;;7.55;2.40;;;15.90;81.40;;;;;;5052238;28;20049;-84
2021/07/07 02:09:25;;;;;;;18.67;2.53;;;15.90;81.40;;;;;;5052443;28;20049;-84
2021/07/07 02:11:52;;;;;;;10.52;2.28;;;16.00;81.50;;;;;;5051457;28;20051;-83
2021/07/07 02:14:20;;;;;;;15.90;2.60;;;15.90;81.50;;;;;;5052009;28;20056;-84
2021/07/07 02:16:47;;;;;;;7.90;1.90;;;15.90;81.50;;;;;;5051661;28;20090;-86
2021/07/07 02:19:14;;;;;;;11.00;2.53;;;15.90;81.50;;;;;;5051924;28;20072;-85
2021/07/07 02:21:41;;;;;;;8.40;2.30;;;15.90;81.50;;;;;;5051883;28;20499;-83
2021/07/07 02:24:08;;;;;;;6.53;2.10;;;15.90;81.40;;;;;;5051723;28;20063;-86
2021/07/07 02:26:36;;;;;;;11.05;2.45;;;15.90;81.50;;;;;;5051427;28;20041;-84
2021/07/07 02:29:03;;;;;;;16.45;2.92;;;15.90;81.50;;;;;;5051519;28;20128;-83
2021/07/07 02:31:31;;;;;;;8.27;2.35;;;15.90;81.50;;;;;;5051422;28;20120;-84
2021/07/07 02:33:58;;;;;;;14.57;2.90;;;15.90;81.50;;;;;;5052298;28;20492;-85
2021/07/07 02:36:25;;;;;;;8.70;2.55;;;15.90;81.60;;;;;;5051580;28;20045;-84
2021/07/07 02:38:52;;;;;;;10.80;2.40;;;15.90;81.60;;;;;;5046084;28;20099;-84
2021/07/07 02:41:19;;;;;;;7.25;2.33;;;15.90;81.60;;;;;;5053436;28;20131;-85
2021/07/07 02:43:47;;;;;;;7.47;2.38;;;15.90;81.60;;;;;;5050993;28;20048;-85
2021/07/07 02:46:14;;;;;;;8.20;3.05;;;15.90;81.60;;;;;;5034841;28;20053;-85
2021/07/07 02:48:41;;;;;;;7.53;2.47;;;15.90;81.60;;;;;;5034545;28;20135;-84
2021/07/07 02:51:08;;;;;;;11.02;2.38;;;15.90;81.60;;;;;;5034808;28;20405;-84
2021/07/07 02:53:35;;;;;;;6.03;2.28;;;15.90;81.50;;;;;;5034276;28;20041;-83
2021/07/07 02:56:03;;;;;;;7.22;2.50;;;15.90;81.50;;;;;;5051161;28;20053;-85
2021/07/07 02:58:30;;;;;;;8.55;2.45;;;15.90;81.50;;;;;;5051032;28;20084;-84
2021/07/07 03:00:57;;;;;;;9.55;2.83;;;15.90;81.50;;;;;;5051064;28;20048;-84
2021/07/07 03:03:25;;;;;;;11.02;2.90;;;15.90;81.50;;;;;;5050758;28;20081;-87
2021/07/07 03:05:55;;;;;;;7.55;2.67;;;15.90;81.50;;;;;;5034626;28;20059;-84
2021/07/07 03:08:25;;;;;;;10.93;2.80;;;15.90;81.50;;;;;;5051654;28;20045;-84
2021/07/07 03:10:54;;;;;;;11.48;2.78;;;15.80;81.50;;;;;;5034605;28;20059;-84
2021/07/07 03:13:22;;;;;;;9.13;2.85;;;15.80;81.50;;;;;;5051124;28;20053;-87
2021/07/07 03:15:51;;;;;;;12.43;2.80;;;15.80;81.40;;;;;;5050542;28;20531;-86
2021/07/07 03:18:18;;;;;;;6.88;2.63;;;15.80;81.50;;;;;;5051270;28;20053;-87
2021/07/07 03:20:49;;;;;;;9.02;2.97;;;15.80;81.50;;;;;;5050287;28;20049;-84
2021/07/07 03:23:18;;;;;;;7.72;2.55;;;15.80;81.50;;;;;;5050336;28;20049;-84
2021/07/07 03:25:47;;;;;;;7.78;2.67;;;15.80;81.50;;;;;;5051742;28;20044;-83
2021/07/07 03:28:14;;;;;;;11.75;3.22;;;15.70;81.50;;;;;;5050637;28;20045;-86
2021/07/07 03:30:42;;;;;;;15.80;3.25;;;15.70;81.50;;;;;;5050231;28;20525;-83
2021/07/07 03:33:09;;;;;;;7.75;2.63;;;15.70;81.50;;;;;;5050985;28;20057;-86
2021/07/07 03:35:36;;;;;;;14.63;3.25;;;15.70;81.40;;;;;;5051099;28;20051;-83
2021/07/07 03:38:04;;;;;;;8.93;3.25;;;15.70;81.40;;;;;;5050378;28;20083;-84
2021/07/07 03:40:33;;;;;;;13.23;3.33;;;15.60;81.40;;;;;;5039497;28;20045;-86
2021/07/07 03:43:00;;;;;;;14.13;3.40;;;15.60;81.50;;;;;;5057943;28;20123;-86
2021/07/07 03:45:28;;;;;;;10.57;3.38;;;15.60;81.50;;;;;;5050407;28;20148;-86
2021/07/07 03:47:55;;;;;;;16.45;3.60;;;15.60;81.50;;;;;;5050314;28;20045;-81
2021/07/07 03:50:23;;;;;;;8.52;3.63;;;15.60;81.50;;;;;;5050392;28;20124;-85
2021/07/07 03:52:51;;;;;;;9.30;3.40;;;15.60;81.50;;;;;;5050007;28;20051;-86
2021/07/07 03:55:21;;;;;;;8.15;2.90;;;15.50;81.50;;;;;;5050446;28;20045;-84
2021/07/07 03:57:49;;;;;;;12.18;3.20;;;15.50;81.40;;;;;;5050444;28;20063;-84
2021/07/07 04:00:20;;;;;;;7.32;2.92;;;15.50;81.50;;;;;;5050043;28;20424;-84
2021/07/07 04:02:47;;;;;;;14.80;3.38;;;15.50;81.50;;;;;;5046827;28;20129;-85
2021/07/07 04:05:14;;;;;;;12.20;3.30;;;15.50;81.40;;;;;;5030553;28;20509;-84
2021/07/07 04:07:43;;;;;;;11.35;3.15;;;15.50;81.50;;;;;;5029751;28;20429;-86
2021/07/07 04:10:12;;;;;;;14.95;3.15;;;15.40;81.40;;;;;;5046939;28;20054;-85
2021/07/07 04:12:42;;;;;;;11.32;3.75;;;15.40;81.50;;;;;;5046831;28;20083;-83
2021/07/07 04:15:11;;;;;;;14.88;3.05;;;15.40;81.40;;;;;;5031114;28;20587;-86
2021/07/07 04:17:38;;;;;;;7.32;3.28;;;15.40;81.40;;;;;;5046934;28;20436;-85
2021/07/07 04:20:07;;;;;;;9.07;3.22;;;15.40;81.50;;;;;;5031675;28;20053;-86
2021/07/07 04:22:36;;;;;;;18.23;3.17;;;15.40;81.50;;;;;;5046717;28;20057;-84
2021/07/07 04:25:07;;;;;;;13.80;3.53;;;15.40;81.60;;;;;;5030635;28;20057;-83
2021/07/07 04:27:36;;;;;;;17.48;3.60;;;15.40;81.60;;;;;;5031238;28;20048;-85
2021/07/07 04:30:12;;;;;;;16.48;3.53;;;15.40;81.70;;;;;;5030215;28;20049;-82
2021/07/07 04:32:39;;;;;;;7.82;3.30;;;15.40;81.80;;;;;;5049970;28;20515;-83
2021/07/07 04:35:08;;;;;;;16.30;3.47;;;15.40;81.80;;;;;;5050661;28;20132;-84
2021/07/07 04:37:36;;;;;;;17.50;3.42;;;15.40;81.80;;;;;;5035062;28;20065;-85
2021/07/07 04:40:08;;;;;;;9.27;3.10;;;15.40;81.80;;;;;;5050339;28;20045;-84
2021/07/07 04:42:36;;;;;;;10.32;3.60;;;15.40;81.80;;;;;;5047237;28;20045;-86
2021/07/07 04:45:09;;;;;;;12.10;3.60;;;15.40;81.80;;;;;;5050212;28;20235;-83
2021/07/07 04:47:37;;;;;;;10.45;3.35;;;15.40;81.90;;;;;;5033580;28;20517;-83
2021/07/07 04:50:16;;;;;;;12.50;3.60;;;15.40;81.90;;;;;;5033128;28;20057;-85
2021/07/07 04:52:43;;;;;;;9.00;3.70;;;15.40;81.90;;;;;;5033550;28;20053;-84
2021/07/07 04:55:12;;;;;;;14.45;3.78;;;15.40;81.90;;;;;;5033380;28;20124;-84
2021/07/07 04:57:42;;;;;;;13.60;4.05;;;15.40;81.90;;;;;;5049648;28;20051;-86
2021/07/07 05:00:17;;;;;;;13.23;4.00;;;15.40;81.90;;;;;;5034788;28;20057;-83
2021/07/07 05:02:45;;;;;;;11.52;3.33;;;15.40;81.90;;;;;;5040426;28;20060;-83
2021/07/07 05:05:14;;;;;;;7.82;3.40;;;15.40;81.90;;;;;;5053025;28;20128;-87
2021/07/07 05:07:42;;;;;;;19.13;3.70;;;15.40;82.00;;;;;;5053166;28;20049;-85
2021/07/07 05:10:10;;;;;;;10.55;3.72;;;15.40;82.00;;;;;;5053412;28;20053;-85
2021/07/07 05:12:38;;;;;;;10.50;3.55;;;15.30;82.00;;;;;;5052933;28;20041;-87
2021/07/07 05:15:07;;;;;;;14.25;4.13;;;15.40;82.00;;;;;;5053287;28;20114;-84
2021/07/07 05:17:34;;;;;;;13.98;4.68;;;15.40;82.10;;;;;;5053389;28;20053;-85
2021/07/07 05:20:01;;;;;;;8.65;3.60;;;15.30;82.10;;;;;;5052407;28;20049;-82
2021/07/07 05:22:29;;;;;;;14.60;4.07;;;15.40;82.10;;;;;;5052784;28;20479;-87
2021/07/07 05:24:56;;;;;;;11.20;3.67;;;15.40;82.20;;;;;;5052768;28;20049;-85
2021/07/07 05:27:23;;;;;;;10.57;4.15;;;15.40;82.20;;;;;;5052525;28;20057;-84
2021/07/07 05:29:50;;;;;;;12.38;4.30;;;15.40;82.30;;;;;;5036282;28;20045;-87
2021/07/07 05:32:23;;;;;;;12.90;4.05;;;15.40;82.30;;;;;;5052821;28;20045;-86
2021/07/07 05:34:52;;;;;;;11.57;3.83;;;15.40;82.30;;;;;;5035511;28;20500;-83
2021/07/07 05:37:22;;;;;;;10.23;3.70;;;15.50;82.40;;;;;;5036289;28;20055;-86
2021/07/07 05:39:50;;;;;;;16.70;3.92;;;15.50;82.30;;;;;;5052418;28;20515;-87
2021/07/07 05:42:20;;;;;;;20.42;4.25;;;15.50;82.30;;;;;;5065433;28;20057;-86
2021/07/07 05:44:52;;;;;;;10.68;3.42;;;15.50;82.30;;;;;;5053406;28;20053;-85
2021/07/07 05:47:21;;;;;;;15.25;4.53;;;15.60;82.30;;;;;;5035876;28;20095;-85
2021/07/07 05:49:48;;;;;;;11.88;4.40;;;15.60;82.30;;;;;;5052855;28;20080;-88
2021/07/07 05:52:15;;;;;;;10.63;4.03;;;15.60;82.30;;;;;;5036205;28;20048;-86
2021/07/07 05:54:43;;;;;;;13.27;4.22;;;15.60;82.20;;;;;;5053266;28;20083;-84
2021/07/07 05:57:10;;;;;;;12.00;4.40;;;15.70;82.10;;;;;;5051831;28;20051;-84
2021/07/07 06:14:02;;;;;;;14.00;4.32;;;15.70;82.00;;;;;;5127952;27;20440;-84
2021/07/07 06:16:30;;;;;;;9.93;3.90;;;16.00;82.10;;;;;;5109786;28;20043;-86
2021/07/07 06:18:58;;;;;;;9.48;3.65;;;16.00;82.00;;;;;;5109654;28;20061;-86
2021/07/07 06:21:25;;;;;;;11.95;4.05;;;16.10;81.80;;;;;;5090023;28;20040;-86
2021/07/07 06:23:52;;;;;;;8.32;3.92;;;16.10;81.70;;;;;;5099505;28;20083;-84
2021/07/07 06:26:19;;;;;;;12.68;4.38;;;16.10;81.70;;;;;;5036696;28;20141;-88
2021/07/07 06:28:46;;;;;;;12.15;4.13;;;16.10;81.60;;;;;;5025812;28;20057;-83
2021/07/07 06:31:16;;;;;;;15.93;4.38;;;16.20;81.60;;;;;;5047517;28;20135;-86
2021/07/07 06:33:43;;;;;;;11.93;4.55;;;16.20;81.50;;;;;;5047780;28;20132;-84
2021/07/07 06:36:10;;;;;;;13.20;4.60;;;16.20;81.50;;;;;;5047298;28;20439;-87
2021/07/07 06:38:38;;;;;;;14.30;4.80;;;16.20;81.50;;;;;;5047280;28;20427;-86
2021/07/07 06:41:05;;;;;;;12.00;4.78;;;16.20;81.50;;;;;;5033836;28;20073;-85
2021/07/07 06:43:32;;;;;;;12.10;4.80;;;16.30;81.50;;;;;;5027672;28;20058;-87
2021/07/07 06:45:59;;;;;;;14.52;4.50;;;16.30;81.50;;;;;;5027479;28;20111;-83
2021/07/07 06:48:26;;;;;;;13.85;4.53;;;16.30;81.60;;;;;;5027618;28;20045;-85
2021/07/07 06:50:54;;;;;;;9.75;4.57;;;16.40;81.60;;;;;;5027651;28;20053;-85
2021/07/07 06:53:23;;;;;;;14.10;4.30;;;16.40;81.60;;;;;;5027126;28;20055;-86
2021/07/07 06:55:51;;;;;;;9.13;4.07;;;16.50;81.60;;;;;;5027527;28;20068;-88
2021/07/07 06:58:18;;;;;;;13.65;4.60;;;16.50;81.50;;;;;;5027853;28;20073;-86
2021/07/07 07:00:45;;;;;;;10.68;4.30;;;16.60;81.30;;;;;;5028336;28;20072;-87
2021/07/07 07:03:13;;;;;;;15.32;4.85;;;16.70;81.10;;;;;;5027321;28;20083;-87
2021/07/07 07:05:40;;;;;;;14.30;4.75;;;16.80;80.90;;;;;;5024014;28;20060;-85
2021/07/07 07:08:08;;;;;;;13.20;4.20;;;16.80;80.80;;;;;;5007539;28;20062;-85
2021/07/07 07:10:35;;;;;;;13.18;4.47;;;16.90;80.50;;;;;;5007437;28;20157;-86
2021/07/07 07:13:03;;;;;;;13.55;4.95;;;16.90;80.50;;;;;;5004903;28;20424;-87
2021/07/07 07:15:31;;;;;;;10.57;4.40;;;17.00;80.30;;;;;;5001142;28;20088;-85
2021/07/07 07:18:00;;;;;;;11.90;5.13;;;17.00;80.10;;;;;;5008535;28;20685;-87
2021/07/07 07:20:29;;;;;;;13.82;4.75;;;17.10;80.10;;;;;;5028808;28;20475;-85
2021/07/07 07:23:04;;;;;;;11.35;4.30;;;17.20;80.20;;;;;;5022199;28;20089;-86
2021/07/07 07:25:33;;;;;;;11.18;4.05;;;17.20;80.20;;;;;;5010504;28;20074;-87
2021/07/07 07:28:04;;;;;;;10.65;4.38;;;17.20;80.00;;;;;;4999092;28;20180;-88
2021/07/07 07:30:31;;;;;;;9.55;3.83;;;17.30;79.60;;;;;;4993839;28;20051;-86
2021/07/07 07:33:01;;;;;;;10.20;3.90;;;17.40;79.60;;;;;;4993632;28;20049;-87
2021/07/07 07:35:28;;;;;;;8.45;3.55;;;17.40;79.70;;;;;;5000531;28;20057;-83
2021/07/07 07:38:07;;;;;;;9.90;4.10;;;17.40;79.50;;;;;;5013394;28;20100;-88
2021/07/07 07:43:05;;;;;;;10.38;3.70;;;17.50;78.10;;;;;;5014429;28;20432;-90
2021/07/07 07:45:38;;;;;;;7.13;3.58;;;17.50;78.20;;;;;;5013335;28;20141;-87
2021/07/07 07:48:15;;;;;;;6.88;3.45;;;17.60;78.40;;;;;;5014536;28;20061;-89
2021/07/07 07:50:43;;;;;;;15.35;4.57;;;17.60;78.20;;;;;;5013461;28;20112;-86
2021/07/07 07:53:10;;;;;;;9.52;3.00;;;17.70;78.00;;;;;;5012694;28;20104;-88
2021/07/07 07:55:40;;;;;;;8.98;3.85;;;17.80;77.70;;;;;;5014544;28;20054;-86
2021/07/07 07:58:10;;;;;;;8.98;3.55;;;17.90;77.60;;;;;;5013321;28;20121;-89
2021/07/07 08:00:53;;;;;;;9.38;4.43;;;17.80;77.80;;;;;;5013404;28;20049;-90
2021/07/07 08:03:20;;;;;;;10.38;3.90;;;17.90;78.00;;;;;;5012913;28;20097;-88
2021/07/07 08:06:00;;;;;;;7.82;3.50;;;18.00;77.50;;;;;;5012952;28;20056;-88
2021/07/07 08:08:30;;;;;;;13.18;4.68;;;18.00;77.70;;;;;;5014164;28;20060;-91
2021/07/07 08:10:57;;;;;;;7.70;3.35;;;18.10;77.70;;;;;;5013712;28;20057;-87
2021/07/07 08:13:24;;;;;;;10.00;3.65;;;18.10;77.40;;;;;;5013046;28;20464;-85
2021/07/07 08:15:52;;;;;;;7.93;3.08;;;18.20;77.20;;;;;;5013918;28;20049;-88
2021/07/07 08:18:19;;;;;;;7.85;3.70;;;18.20;77.10;;;;;;5013819;28;20056;-90
2021/07/07 08:20:47;;;;;;;11.43;3.55;;;18.20;77.10;;;;;;5007007;28;20050;-90
2021/07/07 08:23:14;;;;;;;9.45;3.33;;;18.20;77.10;;;;;;5010356;28;20109;-90
2021/07/07 08:25:42;;;;;;;11.80;3.40;;;18.30;77.10;;;;;;5009375;28;20054;-87
2021/07/07 08:28:10;;;;;;;8.13;2.97;;;18.30;76.80;;;;;;4994826;28;20467;-87
2021/07/07 08:30:37;;;;;;;10.20;3.45;;;18.30;76.60;;;;;;5009635;28;20046;-86
2021/07/07 08:33:05;;;;;;;8.75;3.22;;;18.40;76.50;;;;;;5010007;28;20082;-85
2021/07/07 08:35:32;;;;;;;10.05;3.13;;;18.40;76.30;;;;;;5009851;28;20050;-86
2021/07/07 08:37:59;;;;;;;7.72;2.80;;;18.40;76.60;;;;;;5009927;28;20073;-87
2021/07/07 08:40:27;;;;;;;10.90;3.15;;;18.50;76.40;;;;;;5010094;28;20061;-85
2021/07/07 08:42:55;;;;;;;6.22;2.75;;;18.50;75.70;;;;;;5009560;28;20496;-85
2021/07/07 08:45:23;;;;;;;10.07;3.22;;;18.60;75.50;;;;;;4994523;28;20296;-87
2021/07/07 08:47:53;;;;;;;7.47;2.63;;;18.60;75.50;;;;;;5009631;28;20084;-87
2021/07/07 08:50:29;;;;;;;8.77;2.95;;;18.60;75.30;;;;;;4994620;28;20133;-86
2021/07/07 08:53:00;;;;;;;5.47;2.50;;;18.60;74.90;;;;;;5009513;28;20125;-88
2021/07/07 08:55:30;;;;;;;8.88;2.95;;;18.70;74.90;;;;;;5013028;28;20057;-85
2021/07/07 08:57:59;;;;;;;6.80;3.60;;;18.70;74.40;;;;;;5012707;28;20054;-84
2021/07/07 09:00:35;;;;;;;7.68;3.13;;;18.80;74.40;;;;;;5012623;28;20067;-84
2021/07/07 09:03:15;;;;;;;7.45;3.17;;;18.90;74.50;;;;;;5012866;28;20145;-87
2021/07/07 09:06:03;;;;;;;7.20;2.42;;;19.00;74.90;;;;;;5013968;28;20049;-90
2021/07/07 09:08:38;;;;;;;4.60;2.53;;;19.20;74.30;;;;;;5012452;28;20138;-86
2021/07/07 09:11:22;;;;;;;7.32;2.97;;;19.30;73.50;;;;;;5012555;28;20054;-87
2021/07/07 09:14:15;;;;;;;6.95;3.15;;;19.40;73.40;;;;;;5010542;28;20053;-88
2021/07/07 09:16:58;;;;;;;6.65;3.22;;;19.60;73.60;;;;;;4992751;28;20493;-87
2021/07/07 09:19:26;;;;;;;9.93;3.40;;;19.80;73.40;;;;;;4992952;28;20457;-90
2021/07/07 09:22:07;;;;;;;9.73;2.80;;;19.90;73.20;;;;;;4992931;28;20109;-86
2021/07/07 09:24:43;;;;;;;6.32;2.90;;;20.10;70.70;;;;;;4992823;28;20454;-86
2021/07/07 09:27:17;;;;;;;6.13;2.93;;;20.20;70.80;;;;;;4994217;28;20085;-87
2021/07/07 09:30:14;;;;;;;7.85;3.38;;;20.20;70.40;;;;;;4992628;28;20050;-86
2021/07/07 09:32:56;;;;;;;6.43;3.17;;;20.20;69.80;;;;;;4988938;28;20111;-84
2021/07/07 09:35:23;;;;;;;6.65;2.53;;;20.20;69.80;;;;;;4993638;28;20546;-86
2021/07/07 09:37:58;;;;;;;8.52;2.75;;;20.20;69.50;;;;;;4992451;28;20399;-86
2021/07/07 09:40:25;;;;;;;7.70;3.28;;;20.20;70.00;;;;;;4992691;28;20145;-87
2021/07/07 09:42:54;;;;;;;5.75;3.00;;;20.20;70.00;;;;;;4992510;28;20509;-86
2021/07/07 09:45:27;;;;;;;6.25;2.90;;;20.20;69.90;;;;;;4993335;28;20496;-89
2021/07/07 09:48:08;;;;;;;6.85;2.88;;;20.30;69.80;;;;;;4993537;28;20050;-86
2021/07/07 09:50:35;;;;;;;8.57;2.92;;;20.30;69.90;;;;;;5008720;28;20070;-85
2021/07/07 09:53:02;;;;;;;5.75;2.58;;;20.30;69.90;;;;;;4993382;28;20100;-86
2021/07/07 09:55:35;;;;;;;6.38;2.72;;;20.40;70.20;;;;;;5008094;28;20053;-85
2021/07/07 09:58:03;;;;;;;5.78;2.70;;;20.40;70.20;;;;;;4991951;28;20477;-89
2021/07/07 10:00:42;;;;;;;7.55;2.60;;;20.40;68.80;;;;;;4993551;28;20520;-87
2021/07/07 10:03:09;;;;;;;6.60;2.53;;;20.40;68.60;;;;;;4992127;28;20100;-87
2021/07/07 10:05:39;;;;;;;5.88;2.83;;;20.40;68.60;;;;;;5008526;28;20607;-85
2021/07/07 10:08:08;;;;;;;7.10;3.05;;;20.40;68.90;;;;;;4993359;28;20051;-87
2021/07/07 10:10:38;;;;;;;6.88;2.28;;;20.40;69.20;;;;;;4992415;28;20108;-88
2021/07/07 10:13:06;;;;;;;5.68;2.08;;;20.50;69.30;;;;;;4991366;28;20568;-85
2021/07/07 10:15:33;;;;;;;6.50;2.00;;;20.60;69.10;;;;;;5009409;28;20559;-87
2021/07/07 10:18:09;;;;;;;6.22;2.45;;;20.70;69.00;;;;;;5011721;28;20050;-88
2021/07/07 10:20:37;;;;;;;4.30;2.00;;;20.80;68.50;;;;;;5013122;28;20074;-88
2021/07/07 10:23:09;;;;;;;7.70;2.15;;;20.80;68.40;;;;;;5008086;28;20104;-89
2021/07/07 10:25:37;;;;;;;8.85;2.22;;;20.90;68.10;;;;;;4993406;28;20058;-89
2021/07/07 10:28:13;;;;;;;5.37;2.00;;;21.10;68.00;;;;;;4991792;28;20058;-89
2021/07/07 10:31:00;;;;;;;5.60;2.17;;;21.20;68.00;;;;;;4991898;28;20746;-91
2021/07/07 10:33:36;;;;;;;7.60;1.95;;;21.40;67.30;;;;;;4992136;28;20074;-91
2021/07/07 10:36:21;;;;;;;8.77;2.13;;;21.40;66.80;;;;;;4991775;28;20425;-87
2021/07/07 10:39:23;;;;;;;5.00;2.10;;;21.50;66.60;;;;;;4975728;28;20050;-90
2021/07/07 10:42:15;;;;;;;3.85;1.52;;;21.70;67.30;;;;;;4992099;28;20133;-90
2021/07/07 10:45:07;;;;;;;5.68;2.10;;;21.80;66.80;;;;;;4991672;28;20468;-92
2021/07/07 10:48:31;;;;;;;5.40;1.90;;;21.90;65.50;;;;;;4951661;28;20114;-88
2021/07/07 10:51:54;;;;;;;;;;;;;;;;;;;;;
2021/07/07 10:55:43;;;;;;;5.45;1.60;;;22.30;65.50;;;;;;4917517;29;20423;-89
2021/07/07 10:59:03;;;;;;;;;;;;;;;;;;;;;
2021/07/07 11:01:44;;;;;;;6.05;1.98;;;22.60;64.00;;;;;;4898549;29;20048;-88
2021/07/07 11:04:15;;;;;;;4.78;1.90;;;22.70;64.00;;;;;;4898704;29;20568;-89
2021/07/07 11:06:57;;;;;;;5.55;2.13;;;22.80;63.80;;;;;;5169310;22;20080;-88
2021/07/07 11:14:37;;;;;;;;;;;;;;;;;;;;;
2021/07/07 11:17:22;;;;;;;5.05;2.10;;;22.90;63.60;;;;;;4916334;29;20492;-87
2021/07/07 11:20:49;;;;;;;6.38;2.15;;;23.00;64.50;;;;;;4873433;29;20065;-86
2021/07/07 11:24:25;;;;;;;;;;;;;;;;;;;;;
2021/07/07 11:27:29;;;;;;;;;;;23.20;64.50;;;;;;4842580;29;20110;-87
2021/07/07 11:30:29;;;;;;;;;;;;;;;;;;;;;
2021/07/07 11:37:03;;;;;;;7.22;2.10;;;23.30;62.70;;;;;;4719530;30;20101;-86
2021/07/07 11:59:16;;;;;;;5.25;1.80;;;23.80;62.70;;;;;;6378792;22;20009;-85
2021/07/07 12:20:55;;;;;;;;;;;;;;;;;;;;;
2021/07/07 12:35:18;;;;;;;5.38;1.70;;;24.60;58.60;;;;;;6015239;23;20123;-86
2021/07/07 12:42:15;;;;;;;6.38;1.92;;;24.50;58.80;;;;;;5915609;24;20032;-88
2021/07/07 15:18:50;;;;;;;3.00;1.23;;;25.50;54.30;;;;;;6134232;22;1504693;-87
2021/07/07 15:57:05;;;;;;;3.83;1.60;;;25.10;55.60;;;;;;5987809;24;20051;-87
2021/07/07 15:59:37;;;;;;;4.97;1.65;;;25.20;55.50;;;;;;5931794;24;20027;-86
2021/07/07 16:02:21;;;;;;;3.30;1.20;;;25.20;55.60;;;;;;5856308;24;20488;-88
2021/07/07 16:05:12;;;;;;;4.38;1.23;;;25.30;55.50;;;;;;5770871;24;20099;-84
2021/07/07 16:47:37;;;;;;;3.63;1.10;;;25.40;54.30;;;;;;6124942;22;1515431;-89
2021/07/07 16:50:07;;;;;;;6.30;1.40;;;25.40;54.70;;;;;;6162088;22;20044;-86
2021/07/07 16:52:41;;;;;;;5.75;1.60;;;25.40;53.60;;;;;;6163297;22;20020;-88
2021/07/07 16:55:11;;;;;;;3.72;1.23;;;25.40;53.20;;;;;;6163162;22;20455;-87
2021/07/07 16:58:08;;;;;;;5.18;1.58;;;25.40;52.80;;;;;;6164280;22;20074;-85
2021/07/07 17:00:39;;;;;;;5.13;1.73;;;25.40;52.90;;;;;;6162473;22;20013;-86
2021/07/07 17:03:59;;;;;;;;;;;;;;;;;;;;;
2021/07/07 17:22:02;;;;;;;5.85;1.58;;;25.30;54.00;;;;;;5951638;24;20061;-87
2021/07/07 17:25:08;;;;;;;4.47;1.58;;;25.10;54.70;;;;;;5959547;24;20409;-87
2021/07/07 17:27:47;;;;;;;;;;;;;;;;;;;;;
2021/07/07 17:30:22;;;;;;;4.10;1.48;;;25.00;55.70;;;;;;5963025;24;20364;-85
2021/07/07 17:32:55;;;;;;;4.65;1.65;;;24.90;56.20;;;;;;5958336;24;20013;-84
2021/07/07 17:35:33;;;;;;;8.93;1.70;;;24.80;56.70;;;;;;5958460;24;20027;-86
2021/07/07 17:38:02;;;;;;;5.72;1.73;;;24.60;57.10;;;;;;5958347;24;20012;-89
2021/07/07 17:40:38;;;;;;;4.20;1.85;;;24.50;57.40;;;;;;5958210;24;20019;-91
2021/07/07 17:43:26;;;;;;;4.00;1.60;;;24.40;57.70;;;;;;5958006;24;20035;-85
2021/07/07 17:46:15;;;;;;;7.63;2.53;;;24.30;58.00;;;;;;5978432;23;20356;-88
2021/07/07 17:48:52;;;;;;;;;;;;;;;;;;;;;
2021/07/07 17:51:31;;;;;;;;;;;;;;;;;;;;;
2021/07/07 19:12:21;;;;;;;;;;;;;;;;;;;;;
2021/07/07 19:23:46;;;;;;;4.38;2.22;;;21.40;68.00;;;;;;5932019;24;20123;-86
2021/07/07 19:27:23;;;;;;;;;;;;;;;;;;;;;
2021/07/07 19:33:51;;;;;;;7.40;1.83;;;21.20;68.30;;;;;;5931871;24;20016;-85
2021/07/07 19:36:17;;;;;;;5.35;1.92;;;21.20;68.40;;;;;;5908999;24;20020;-87
2021/07/07 19:38:43;;;;;;;4.85;2.03;;;21.10;68.50;;;;;;5886440;24;20037;-89
2021/07/07 19:41:09;;;;;;;11.10;2.42;;;21.10;68.60;;;;;;5886514;24;20330;-87
2021/07/07 19:43:35;;;;;;;5.88;2.05;;;21.00;68.70;;;;;;5909135;24;20017;-86
2021/07/07 19:46:01;;;;;;;5.70;2.28;;;21.00;68.90;;;;;;5924305;23;20487;-86
2021/07/07 19:48:27;;;;;;;7.07;3.00;;;20.90;68.90;;;;;;5992176;23;20395;-86
2021/07/07 19:50:53;;;;;;;7.10;2.78;;;20.90;69.10;;;;;;5968900;23;20011;-88
2021/07/07 20:16:24;;;;;;;;;;;;;;;;;;;;;
2021/07/07 20:19:24;;;;;;;5.73;2.00;;;20.40;69.50;;;;;;5923792;24;20415;-83
2021/07/07 20:22:10;;;;;;;13.63;2.40;;;20.40;69.50;;;;;;5900662;24;20075;-85
2021/07/07 20:25:40;;;;;;;8.32;2.20;;;20.30;69.40;;;;;;5925231;24;20489;-84
2021/07/07 20:29:00;;;;;;;5.82;2.22;;;20.20;69.50;;;;;;5923339;24;20029;-86
2021/07/07 20:31:44;;;;;;;8.40;2.42;;;20.10;69.40;;;;;;5911314;24;20029;-85
2021/07/07 20:34:35;;;;;;;7.32;2.45;;;20.10;69.40;;;;;;5925245;24;20028;-84
2021/07/07 20:37:34;;;;;;;9.05;2.50;;;20.00;69.40;;;;;;5903075;24;20098;-85
2021/07/07 20:40:44;;;;;;;8.30;2.15;;;19.90;69.30;;;;;;5923419;24;20032;-85
2021/07/07 20:43:58;;;;;;;6.15;2.05;;;19.90;69.40;;;;;;5953778;23;20457;-85
2021/07/07 20:46:55;;;;;;;;;;;;;;;;;;;;;
2021/07/07 20:49:51;;;;;;;4.72;2.10;;;19.70;69.50;;;;;;6118799;23;20076;-86
2021/07/07 20:52:18;;;;;;;6.57;2.42;;;19.70;69.60;;;;;;6227400;22;20098;-84